createdAt,value
2018-03-30T00:00:21.644Z,977.14
2018-03-30T00:07:28.932Z,977.10
2018-03-30T00:08:36.028Z,977.21
2018-03-30T00:09:42.752Z,977.17
2018-03-30T00:10:49.670Z,977.21
2018-03-30T00:11:56.625Z,977.17
2018-03-30T00:13:03.424Z,977.22
2018-03-30T00:14:10.101Z,977.12
2018-03-30T00:15:16.806Z,977.12
2018-03-30T00:16:23.508Z,977.21
2018-03-30T00:17:30.200Z,977.25
2018-03-30T00:18:36.917Z,977.15
2018-03-30T00:19:43.609Z,977.19
2018-03-30T00:20:50.393Z,977.17
2018-03-30T00:21:57.094Z,977.15
2018-03-30T00:23:03.843Z,977.12
2018-03-30T00:24:10.576Z,977.11
2018-03-30T00:25:17.285Z,977.13
2018-03-30T00:26:24.100Z,977.07
2018-03-30T00:27:30.833Z,977.05
2018-03-30T00:28:37.557Z,977.08
2018-03-30T00:29:44.306Z,977.02
2018-03-30T00:30:51.003Z,977.02
2018-03-30T00:31:57.795Z,977.04
2018-03-30T00:33:04.597Z,977.00
2018-03-30T00:34:11.312Z,976.97
2018-03-30T00:35:18.033Z,977.03
2018-03-30T00:36:24.722Z,977.00
2018-03-30T00:37:31.496Z,977.01
2018-03-30T00:38:38.341Z,977.04
2018-03-30T00:39:45.077Z,977.03
2018-03-30T00:40:51.841Z,977.02
2018-03-30T00:41:58.581Z,976.92
2018-03-30T00:43:05.319Z,976.92
2018-03-30T00:44:12.136Z,976.97
2018-03-30T00:45:18.845Z,976.89
2018-03-30T00:46:25.727Z,976.89
2018-03-30T00:47:32.443Z,976.90
2018-03-30T00:48:39.225Z,976.92
2018-03-30T00:49:46.086Z,976.91
2018-03-30T00:50:52.880Z,976.98
2018-03-30T00:51:59.597Z,976.87
2018-03-30T00:53:06.305Z,976.91
2018-03-30T00:54:13.333Z,976.93
2018-03-30T00:55:20.069Z,976.87
2018-03-30T00:56:26.872Z,976.87
2018-03-30T00:57:33.557Z,976.80
2018-03-30T00:58:40.240Z,976.88
2018-03-30T00:59:46.989Z,976.82
2018-03-30T01:00:53.697Z,976.86
2018-03-30T01:02:00.456Z,976.89
2018-03-30T01:03:07.197Z,976.86
2018-03-30T01:04:13.874Z,976.80
2018-03-30T01:05:20.609Z,976.86
2018-03-30T01:06:27.320Z,976.78
2018-03-30T01:07:34.471Z,976.78
2018-03-30T01:08:41.172Z,976.78
2018-03-30T01:09:47.888Z,976.78
2018-03-30T01:10:54.680Z,976.74
2018-03-30T01:12:01.375Z,976.75
2018-03-30T01:13:08.075Z,976.82
2018-03-30T01:14:14.792Z,976.70
2018-03-30T01:15:21.505Z,976.67
2018-03-30T01:16:28.220Z,976.71
2018-03-30T01:17:35.080Z,976.72
2018-03-30T01:18:41.767Z,976.65
2018-03-30T01:19:48.485Z,976.68
2018-03-30T01:20:55.206Z,976.68
2018-03-30T01:22:02.062Z,976.62
2018-03-30T01:23:08.854Z,976.62
2018-03-30T01:24:15.571Z,976.57
2018-03-30T01:25:22.299Z,976.59
2018-03-30T01:26:29.116Z,976.58
2018-03-30T01:27:35.844Z,976.53
2018-03-30T01:28:42.614Z,976.60
2018-03-30T01:29:49.857Z,976.53
2018-03-30T01:30:56.600Z,976.58
2018-03-30T01:32:03.535Z,976.55
2018-03-30T01:33:10.469Z,976.49
2018-03-30T01:34:17.212Z,976.50
2018-03-30T01:35:23.970Z,976.48
2018-03-30T01:36:30.701Z,976.46
2018-03-30T01:37:37.419Z,976.39
2018-03-30T01:38:44.264Z,976.41
2018-03-30T01:39:51.076Z,976.45
2018-03-30T01:40:57.841Z,976.40
2018-03-30T01:42:04.601Z,976.41
2018-03-30T01:43:11.385Z,976.35
2018-03-30T01:44:18.123Z,976.43
2018-03-30T01:45:24.908Z,976.36
2018-03-30T01:46:31.684Z,976.40
2018-03-30T01:47:38.553Z,976.46
2018-03-30T01:48:45.447Z,976.48
2018-03-30T01:49:52.149Z,976.43
2018-03-30T01:50:58.908Z,976.45
2018-03-30T01:52:05.657Z,976.41
2018-03-30T01:53:12.376Z,976.49
2018-03-30T01:54:19.171Z,976.40
2018-03-30T01:55:25.892Z,976.33
2018-03-30T01:56:32.648Z,976.35
2018-03-30T01:57:39.391Z,976.32
2018-03-30T01:58:46.196Z,976.27
2018-03-30T01:59:52.900Z,976.29
2018-03-30T02:00:59.641Z,976.29
2018-03-30T02:02:06.421Z,976.31
2018-03-30T02:03:13.137Z,976.38
2018-03-30T02:04:19.990Z,976.34
2018-03-30T02:05:26.818Z,976.35
2018-03-30T02:06:33.840Z,976.32
2018-03-30T02:07:40.612Z,976.35
2018-03-30T02:08:47.335Z,976.34
2018-03-30T02:09:54.278Z,976.31
2018-03-30T02:11:01.050Z,976.30
2018-03-30T02:12:07.972Z,976.32
2018-03-30T02:13:14.773Z,976.27
2018-03-30T02:14:21.524Z,976.38
2018-03-30T02:15:28.407Z,976.26
2018-03-30T02:16:35.316Z,976.28
2018-03-30T02:17:42.169Z,976.29
2018-03-30T02:18:48.914Z,976.28
2018-03-30T02:19:55.693Z,976.36
2018-03-30T02:21:02.417Z,976.35
2018-03-30T02:22:09.193Z,976.41
2018-03-30T02:23:16.030Z,976.29
2018-03-30T02:24:22.831Z,976.34
2018-03-30T02:25:29.712Z,976.31
2018-03-30T02:26:36.433Z,976.33
2018-03-30T02:27:43.197Z,976.30
2018-03-30T02:28:49.985Z,976.27
2018-03-30T02:29:56.724Z,976.30
2018-03-30T02:31:03.457Z,976.33
2018-03-30T02:32:10.153Z,976.34
2018-03-30T02:33:16.874Z,976.31
2018-03-30T02:34:23.679Z,976.28
2018-03-30T02:35:30.377Z,976.23
2018-03-30T02:36:37.078Z,976.24
2018-03-30T02:37:43.836Z,976.21
2018-03-30T02:38:50.747Z,976.17
2018-03-30T02:39:57.474Z,976.17
2018-03-30T02:41:04.197Z,976.10
2018-03-30T02:42:10.921Z,976.09
2018-03-30T02:43:17.630Z,976.10
2018-03-30T02:44:24.429Z,976.08
2018-03-30T02:45:31.142Z,976.08
2018-03-30T02:46:37.870Z,976.06
2018-03-30T02:47:44.645Z,976.08
2018-03-30T02:48:51.485Z,976.08
2018-03-30T02:49:58.173Z,976.01
2018-03-30T02:51:04.880Z,976.07
2018-03-30T02:52:11.565Z,976.04
2018-03-30T02:53:18.334Z,976.05
2018-03-30T02:54:25.059Z,976.03
2018-03-30T02:55:31.849Z,976.01
2018-03-30T02:56:38.556Z,975.94
2018-03-30T02:57:45.297Z,975.95
2018-03-30T02:58:52.050Z,975.93
2018-03-30T02:59:58.989Z,975.99
2018-03-30T03:01:05.712Z,975.94
2018-03-30T03:02:12.457Z,975.92
2018-03-30T03:03:19.186Z,975.94
2018-03-30T03:04:26.017Z,975.83
2018-03-30T03:05:32.777Z,975.92
2018-03-30T03:06:39.485Z,975.89
2018-03-30T03:07:46.212Z,975.92
2018-03-30T03:08:52.908Z,975.91
2018-03-30T03:09:59.689Z,975.92
2018-03-30T03:11:06.420Z,975.98
2018-03-30T03:12:13.113Z,975.88
2018-03-30T03:13:19.821Z,975.91
2018-03-30T03:14:26.613Z,975.82
2018-03-30T03:15:33.328Z,975.81
2018-03-30T03:16:40.114Z,975.81
2018-03-30T03:17:46.797Z,975.89
2018-03-30T03:18:53.518Z,975.86
2018-03-30T03:20:00.216Z,975.80
2018-03-30T03:21:06.984Z,975.88
2018-03-30T03:22:13.684Z,975.80
2018-03-30T03:23:20.469Z,975.84
2018-03-30T03:24:27.176Z,975.84
2018-03-30T03:25:33.893Z,975.79
2018-03-30T03:26:40.716Z,975.82
2018-03-30T03:27:47.436Z,975.75
2018-03-30T03:28:54.236Z,975.70
2018-03-30T03:30:01.009Z,975.69
2018-03-30T03:31:07.858Z,975.71
2018-03-30T03:32:14.620Z,975.66
2018-03-30T03:33:21.370Z,975.70
2018-03-30T03:34:28.129Z,975.71
2018-03-30T03:35:34.889Z,975.70
2018-03-30T03:36:41.672Z,975.70
2018-03-30T03:37:48.380Z,975.68
2018-03-30T03:38:55.229Z,975.71
2018-03-30T03:40:02.124Z,975.63
2018-03-30T03:41:08.922Z,975.72
2018-03-30T03:42:15.717Z,975.61
2018-03-30T03:43:22.453Z,975.60
2018-03-30T03:44:29.210Z,975.61
2018-03-30T03:45:35.952Z,975.65
2018-03-30T03:46:42.719Z,975.61
2018-03-30T03:47:49.515Z,975.67
2018-03-30T03:48:56.244Z,975.60
2018-03-30T03:50:03.043Z,975.55
2018-03-30T03:51:09.917Z,975.58
2018-03-30T03:52:16.678Z,975.54
2018-03-30T03:53:23.428Z,975.56
2018-03-30T03:54:30.171Z,975.51
2018-03-30T03:55:36.896Z,975.56
2018-03-30T03:56:43.668Z,975.54
2018-03-30T03:57:50.420Z,975.51
2018-03-30T03:58:57.141Z,975.49
2018-03-30T04:00:03.869Z,975.53
2018-03-30T04:01:10.745Z,975.58
2018-03-30T04:02:17.478Z,975.56
2018-03-30T04:03:24.221Z,975.58
2018-03-30T04:04:30.948Z,975.53
2018-03-30T04:05:37.797Z,975.56
2018-03-30T04:06:44.617Z,975.62
2018-03-30T04:07:51.374Z,975.64
2018-03-30T04:08:58.219Z,975.58
2018-03-30T04:10:05.013Z,975.63
2018-03-30T04:11:11.849Z,975.63
2018-03-30T04:12:18.630Z,975.60
2018-03-30T04:13:25.382Z,975.58
2018-03-30T04:14:32.105Z,975.61
2018-03-30T04:15:38.842Z,975.62
2018-03-30T04:16:45.575Z,975.61
2018-03-30T04:17:52.323Z,975.63
2018-03-30T04:18:59.060Z,975.59
2018-03-30T04:20:05.787Z,975.57
2018-03-30T04:21:12.532Z,975.57
2018-03-30T04:22:19.281Z,975.49
2018-03-30T04:23:26.040Z,975.52
2018-03-30T04:24:32.769Z,975.55
2018-03-30T04:25:39.517Z,975.51
2018-03-30T04:26:46.364Z,975.48
2018-03-30T04:27:53.112Z,975.43
2018-03-30T04:28:59.932Z,975.38
2018-03-30T04:30:06.793Z,975.44
2018-03-30T04:31:13.554Z,975.37
2018-03-30T04:32:20.273Z,975.42
2018-03-30T04:33:26.986Z,975.43
2018-03-30T04:34:33.708Z,975.33
2018-03-30T04:35:40.428Z,975.36
2018-03-30T04:36:47.124Z,975.37
2018-03-30T04:37:53.938Z,975.34
2018-03-30T04:39:00.705Z,975.32
2018-03-30T04:40:07.690Z,975.27
2018-03-30T04:41:14.469Z,975.35
2018-03-30T04:42:21.302Z,975.30
2018-03-30T04:43:28.104Z,975.25
2018-03-30T04:44:34.806Z,975.31
2018-03-30T04:45:41.563Z,975.21
2018-03-30T04:46:48.276Z,975.18
2018-03-30T04:47:55.002Z,975.09
2018-03-30T04:49:01.796Z,975.13
2018-03-30T04:50:08.489Z,975.16
2018-03-30T04:51:15.228Z,975.13
2018-03-30T04:52:21.989Z,975.09
2018-03-30T04:53:28.785Z,975.13
2018-03-30T04:54:35.510Z,975.14
2018-03-30T04:55:42.389Z,975.18
2018-03-30T04:56:49.092Z,975.17
2018-03-30T04:57:55.909Z,975.12
2018-03-30T04:59:02.620Z,975.26
2018-03-30T05:00:09.403Z,975.28
2018-03-30T05:01:16.116Z,975.12
2018-03-30T05:02:22.897Z,975.18
2018-03-30T05:03:29.659Z,975.09
2018-03-30T05:04:36.372Z,975.27
2018-03-30T05:05:43.102Z,975.19
2018-03-30T05:06:49.944Z,975.15
2018-03-30T05:07:56.730Z,975.24
2018-03-30T05:09:03.490Z,975.27
2018-03-30T05:10:10.244Z,975.22
2018-03-30T05:11:16.957Z,975.19
2018-03-30T05:12:23.756Z,975.23
2018-03-30T05:13:30.554Z,975.15
2018-03-30T05:14:37.289Z,975.25
2018-03-30T05:15:44.203Z,975.12
2018-03-30T05:16:51.087Z,975.18
2018-03-30T05:17:58.064Z,975.12
2018-03-30T05:19:05.234Z,975.20
2018-03-30T05:20:12.266Z,975.17
2018-03-30T05:21:19.317Z,975.17
2018-03-30T05:22:26.423Z,975.16
2018-03-30T05:23:32.771Z,975.16
2018-03-30T05:24:39.568Z,975.21
2018-03-30T05:25:46.284Z,975.14
2018-03-30T05:26:53.187Z,975.16
2018-03-30T05:28:00.278Z,975.14
2018-03-30T05:29:07.028Z,975.15
2018-03-30T05:30:13.838Z,975.08
2018-03-30T05:31:20.712Z,975.13
2018-03-30T05:32:27.471Z,975.14
2018-03-30T05:33:34.233Z,975.07
2018-03-30T05:34:40.992Z,975.14
2018-03-30T05:35:47.778Z,975.04
2018-03-30T05:36:54.642Z,975.16
2018-03-30T05:38:01.380Z,975.07
2018-03-30T05:39:08.332Z,975.02
2018-03-30T05:40:15.188Z,975.07
2018-03-30T05:41:21.957Z,974.98
2018-03-30T05:42:28.696Z,975.07
2018-03-30T05:43:35.421Z,974.96
2018-03-30T05:44:42.196Z,974.98
2018-03-30T05:45:49.021Z,975.03
2018-03-30T05:46:55.770Z,975.01
2018-03-30T05:48:02.539Z,975.02
2018-03-30T05:49:09.550Z,974.98
2018-03-30T05:50:16.349Z,974.98
2018-03-30T05:51:23.081Z,975.01
2018-03-30T05:52:29.906Z,974.95
2018-03-30T05:53:36.628Z,975.01
2018-03-30T05:54:43.433Z,975.02
2018-03-30T05:55:50.155Z,975.00
2018-03-30T05:56:57.285Z,974.98
2018-03-30T05:58:04.120Z,975.06
2018-03-30T05:59:10.884Z,975.01
2018-03-30T06:00:17.978Z,975.01
2018-03-30T06:01:24.568Z,975.03
2018-03-30T06:02:31.313Z,975.07
2018-03-30T06:03:38.065Z,975.03
2018-03-30T06:04:44.822Z,975.08
2018-03-30T06:05:51.564Z,975.01
2018-03-30T06:06:58.338Z,975.07
2018-03-30T06:08:05.104Z,975.13
2018-03-30T06:09:11.837Z,975.10
2018-03-30T06:10:18.578Z,975.09
2018-03-30T06:11:25.445Z,975.13
2018-03-30T06:12:32.164Z,975.09
2018-03-30T06:13:38.932Z,975.04
2018-03-30T06:14:45.662Z,975.09
2018-03-30T06:15:52.544Z,975.12
2018-03-30T06:16:59.270Z,975.12
2018-03-30T06:18:06.013Z,975.12
2018-03-30T06:19:12.793Z,975.05
2018-03-30T06:20:19.609Z,975.16
2018-03-30T06:21:26.371Z,975.18
2018-03-30T06:22:33.128Z,975.08
2018-03-30T06:23:39.913Z,975.07
2018-03-30T06:24:46.731Z,975.12
2018-03-30T06:25:53.509Z,975.14
2018-03-30T06:27:00.300Z,974.98
2018-03-30T06:28:07.152Z,975.04
2018-03-30T06:29:13.885Z,975.09
2018-03-30T06:30:20.654Z,975.11
2018-03-30T06:31:27.452Z,975.05
2018-03-30T06:32:34.261Z,975.13
2018-03-30T06:33:40.964Z,975.07
2018-03-30T06:34:47.708Z,975.03
2018-03-30T06:35:54.424Z,975.04
2018-03-30T06:37:01.222Z,974.96
2018-03-30T06:38:08.024Z,975.00
2018-03-30T06:39:14.771Z,974.96
2018-03-30T06:40:21.572Z,975.03
2018-03-30T06:41:28.511Z,974.94
2018-03-30T06:42:35.302Z,974.95
2018-03-30T06:43:42.020Z,974.98
2018-03-30T06:44:48.814Z,974.89
2018-03-30T06:45:55.528Z,974.93
2018-03-30T06:47:02.282Z,974.88
2018-03-30T06:48:09.003Z,974.90
2018-03-30T06:49:15.705Z,974.90
2018-03-30T06:50:22.425Z,974.85
2018-03-30T06:51:29.176Z,974.84
2018-03-30T06:52:35.893Z,974.83
2018-03-30T06:53:42.629Z,974.81
2018-03-30T06:54:49.394Z,974.79
2018-03-30T06:55:56.260Z,974.78
2018-03-30T06:57:02.958Z,974.82
2018-03-30T06:58:09.718Z,974.73
2018-03-30T06:59:16.434Z,974.79
2018-03-30T07:00:23.160Z,974.79
2018-03-30T07:01:29.851Z,974.77
2018-03-30T07:02:36.637Z,974.76
2018-03-30T07:03:43.316Z,974.77
2018-03-30T07:04:50.044Z,974.69
2018-03-30T07:05:56.796Z,974.67
2018-03-30T07:07:03.524Z,974.63
2018-03-30T07:08:10.583Z,974.56
2018-03-30T07:09:17.304Z,974.62
2018-03-30T07:10:24.063Z,974.66
2018-03-30T07:11:30.820Z,974.58
2018-03-30T07:12:37.859Z,974.57
2018-03-30T07:13:44.624Z,974.56
2018-03-30T07:14:51.332Z,974.61
2018-03-30T07:15:58.052Z,974.55
2018-03-30T07:17:04.753Z,974.50
2018-03-30T07:18:11.585Z,974.54
2018-03-30T07:19:18.311Z,974.49
2018-03-30T07:20:25.037Z,974.46
2018-03-30T07:21:31.811Z,974.44
2018-03-30T07:22:38.517Z,974.48
2018-03-30T07:23:45.247Z,974.38
2018-03-30T07:24:52.021Z,974.46
2018-03-30T07:25:58.757Z,974.43
2018-03-30T07:27:05.506Z,974.39
2018-03-30T07:28:12.209Z,974.41
2018-03-30T07:29:18.954Z,974.37
2018-03-30T07:30:25.741Z,974.42
2018-03-30T07:31:32.476Z,974.33
2018-03-30T07:32:39.303Z,974.33
2018-03-30T07:33:46.048Z,974.31
2018-03-30T07:34:52.840Z,974.26
2018-03-30T07:35:59.596Z,974.31
2018-03-30T07:37:06.400Z,974.25
2018-03-30T07:38:13.259Z,974.38
2018-03-30T07:39:20.055Z,974.25
2018-03-30T07:40:26.797Z,974.34
2018-03-30T07:41:33.897Z,974.28
2018-03-30T07:42:40.636Z,974.25
2018-03-30T07:43:47.440Z,974.23
2018-03-30T07:44:54.304Z,974.16
2018-03-30T07:46:01.055Z,974.18
2018-03-30T07:47:07.848Z,974.28
2018-03-30T07:48:14.600Z,974.20
2018-03-30T07:49:21.348Z,974.20
2018-03-30T07:50:28.309Z,974.23
2018-03-30T07:51:35.070Z,974.14
2018-03-30T07:52:41.858Z,974.10
2018-03-30T07:53:48.603Z,974.09
2018-03-30T07:54:55.389Z,974.09
2018-03-30T07:56:02.129Z,974.03
2018-03-30T07:57:08.924Z,974.04
2018-03-30T07:58:15.780Z,974.03
2018-03-30T07:59:22.482Z,974.04
2018-03-30T08:00:29.224Z,974.00
2018-03-30T08:01:35.958Z,973.96
2018-03-30T08:02:42.705Z,973.90
2018-03-30T08:03:49.493Z,973.83
2018-03-30T08:04:56.329Z,973.85
2018-03-30T08:06:03.092Z,973.85
2018-03-30T08:07:09.841Z,973.84
2018-03-30T08:08:16.565Z,973.81
2018-03-30T08:09:23.312Z,973.80
2018-03-30T08:10:30.084Z,973.78
2018-03-30T08:11:36.781Z,973.77
2018-03-30T08:12:43.504Z,973.75
2018-03-30T08:13:50.268Z,973.69
2018-03-30T08:14:57.028Z,973.73
2018-03-30T08:16:03.798Z,973.64
2018-03-30T08:17:10.537Z,973.68
2018-03-30T08:18:17.401Z,973.69
2018-03-30T08:19:24.146Z,973.60
2018-03-30T08:20:30.910Z,973.61
2018-03-30T08:21:37.645Z,973.68
2018-03-30T08:22:44.463Z,973.53
2018-03-30T08:23:51.164Z,973.56
2018-03-30T08:24:57.912Z,973.58
2018-03-30T08:26:04.806Z,973.59
2018-03-30T08:27:11.578Z,973.57
2018-03-30T08:28:18.308Z,973.56
2018-03-30T08:29:25.044Z,973.55
2018-03-30T08:30:31.771Z,973.59
2018-03-30T08:31:38.605Z,973.53
2018-03-30T08:32:45.330Z,973.52
2018-03-30T08:33:52.056Z,973.47
2018-03-30T08:34:58.784Z,973.46
2018-03-30T08:36:05.537Z,973.46
2018-03-30T08:37:12.309Z,973.42
2018-03-30T08:38:19.025Z,973.47
2018-03-30T08:39:25.862Z,973.46
2018-03-30T08:40:32.845Z,973.46
2018-03-30T08:41:39.572Z,973.43
2018-03-30T08:42:46.322Z,973.45
2018-03-30T08:43:53.047Z,973.42
2018-03-30T08:44:59.808Z,973.42
2018-03-30T08:46:06.557Z,973.40
2018-03-30T08:47:13.418Z,973.37
2018-03-30T08:48:20.386Z,973.39
2018-03-30T08:49:26.876Z,973.39
2018-03-30T08:50:34.075Z,973.41
2018-03-30T08:51:40.652Z,973.44
2018-03-30T08:52:47.417Z,973.44
2018-03-30T08:53:54.139Z,973.39
2018-03-30T08:55:00.876Z,973.46
2018-03-30T08:56:07.758Z,973.35
2018-03-30T08:57:14.633Z,973.38
2018-03-30T08:58:21.486Z,973.31
2018-03-30T08:59:28.267Z,973.23
2018-03-30T09:00:35.000Z,973.24
2018-03-30T09:01:41.929Z,973.26
2018-03-30T09:02:48.882Z,973.14
2018-03-30T09:03:55.721Z,973.15
2018-03-30T09:05:02.456Z,973.12
2018-03-30T09:06:09.440Z,973.12
2018-03-30T09:07:16.653Z,973.14
2018-03-30T09:08:23.380Z,973.07
2018-03-30T09:09:30.456Z,973.07
2018-03-30T09:10:37.324Z,973.05
2018-03-30T09:11:44.296Z,973.01
2018-03-30T09:12:51.040Z,973.04
2018-03-30T09:13:57.887Z,973.04
2018-03-30T09:15:04.636Z,972.93
2018-03-30T09:16:11.364Z,972.99
2018-03-30T09:17:18.181Z,972.91
2018-03-30T09:18:24.937Z,973.02
2018-03-30T09:19:31.708Z,972.83
2018-03-30T09:20:38.454Z,972.90
2018-03-30T09:21:45.210Z,972.93
2018-03-30T09:22:52.008Z,972.85
2018-03-30T09:23:58.790Z,972.83
2018-03-30T09:25:05.520Z,972.74
2018-03-30T09:26:12.250Z,972.76
2018-03-30T09:27:18.973Z,972.72
2018-03-30T09:28:25.814Z,972.67
2018-03-30T09:29:32.594Z,972.66
2018-03-30T09:30:39.389Z,972.60
2018-03-30T09:31:46.141Z,972.66
2018-03-30T09:32:53.093Z,972.60
2018-03-30T09:33:59.885Z,972.61
2018-03-30T09:35:06.609Z,972.48
2018-03-30T09:36:13.392Z,972.43
2018-03-30T09:37:20.101Z,972.44
2018-03-30T09:38:26.870Z,972.38
2018-03-30T09:39:33.621Z,972.28
2018-03-30T09:40:40.513Z,972.30
2018-03-30T09:41:47.280Z,972.26
2018-03-30T09:42:54.206Z,972.22
2018-03-30T09:44:00.948Z,972.19
2018-03-30T09:45:07.681Z,972.23
2018-03-30T09:46:14.420Z,972.14
2018-03-30T09:47:21.147Z,972.10
2018-03-30T09:48:28.023Z,972.14
2018-03-30T09:49:34.776Z,972.07
2018-03-30T09:50:41.529Z,972.05
2018-03-30T09:51:48.460Z,972.02
2018-03-30T09:52:55.179Z,971.96
2018-03-30T09:54:01.939Z,971.88
2018-03-30T09:55:08.693Z,971.91
2018-03-30T09:56:17.883Z,971.85
2018-03-30T09:57:22.509Z,971.88
2018-03-30T09:58:29.248Z,971.79
2018-03-30T09:59:36.016Z,971.76
2018-03-30T10:00:42.837Z,971.78
2018-03-30T10:01:49.635Z,971.70
2018-03-30T10:02:56.464Z,971.69
2018-03-30T10:04:03.220Z,971.67
2018-03-30T10:05:09.940Z,971.65
2018-03-30T10:06:16.689Z,971.51
2018-03-30T10:07:23.397Z,971.49
2018-03-30T10:08:30.163Z,971.45
2018-03-30T10:09:36.905Z,971.47
2018-03-30T10:10:43.700Z,971.42
2018-03-30T10:11:50.543Z,971.40
2018-03-30T10:12:57.379Z,971.35
2018-03-30T10:14:04.222Z,971.30
2018-03-30T10:15:11.017Z,971.19
2018-03-30T10:16:17.755Z,971.23
2018-03-30T10:17:24.566Z,971.14
2018-03-30T10:18:31.275Z,971.08
2018-03-30T10:19:38.145Z,971.15
2018-03-30T10:20:44.900Z,971.07
2018-03-30T10:21:51.664Z,971.13
2018-03-30T10:22:58.465Z,971.20
2018-03-30T10:24:05.216Z,971.17
2018-03-30T10:25:12.087Z,971.29
2018-03-30T10:26:18.801Z,971.31
2018-03-30T10:27:25.772Z,971.26
2018-03-30T10:28:32.492Z,971.29
2018-03-30T10:29:39.303Z,971.27
2018-03-30T10:30:46.095Z,971.26
2018-03-30T10:31:52.890Z,971.36
2018-03-30T10:32:59.629Z,971.42
2018-03-30T10:34:06.369Z,971.37
2018-03-30T10:35:13.113Z,971.31
2018-03-30T10:36:19.881Z,971.34
2018-03-30T10:37:26.614Z,971.30
2018-03-30T10:38:33.381Z,971.28
2018-03-30T10:39:40.360Z,971.20
2018-03-30T10:40:47.260Z,971.11
2018-03-30T10:41:54.047Z,971.06
2018-03-30T10:43:00.747Z,971.01
2018-03-30T10:44:07.515Z,970.89
2018-03-30T10:45:14.299Z,970.84
2018-03-30T10:46:21.097Z,970.78
2018-03-30T10:47:27.845Z,970.79
2018-03-30T10:48:34.633Z,970.79
2018-03-30T10:49:41.335Z,970.80
2018-03-30T10:50:48.148Z,970.79
2018-03-30T10:51:54.893Z,970.87
2018-03-30T10:53:01.659Z,970.86
2018-03-30T10:54:08.381Z,970.82
2018-03-30T10:55:15.304Z,970.82
2018-03-30T10:56:22.078Z,970.87
2018-03-30T10:57:28.831Z,970.86
2018-03-30T10:58:35.708Z,970.85
2018-03-30T10:59:42.695Z,970.92
2018-03-30T11:00:49.445Z,970.92
2018-03-30T11:01:56.232Z,970.80
2018-03-30T11:03:03.105Z,970.93
2018-03-30T11:04:09.839Z,970.97
2018-03-30T11:05:16.695Z,970.93
2018-03-30T11:06:23.408Z,970.88
2018-03-30T11:07:30.137Z,970.85
2018-03-30T11:08:36.852Z,970.80
2018-03-30T11:09:43.613Z,970.87
2018-03-30T11:10:50.348Z,970.88
2018-03-30T11:11:57.168Z,970.77
2018-03-30T11:13:03.886Z,970.85
2018-03-30T11:14:10.718Z,970.79
2018-03-30T11:15:17.566Z,970.76
2018-03-30T11:16:24.349Z,970.79
2018-03-30T11:17:31.114Z,970.80
2018-03-30T11:18:37.844Z,970.76
2018-03-30T11:19:44.636Z,970.72
2018-03-30T11:20:52.223Z,970.75
2018-03-30T11:21:58.501Z,970.66
2018-03-30T11:23:05.290Z,970.71
2018-03-30T11:24:12.040Z,970.73
2018-03-30T11:25:18.812Z,970.73
2018-03-30T11:26:25.635Z,970.78
2018-03-30T11:27:32.402Z,970.80
2018-03-30T11:28:39.236Z,970.81
2018-03-30T11:29:46.103Z,970.76
2018-03-30T11:30:52.823Z,970.86
2018-03-30T11:31:59.661Z,970.82
2018-03-30T11:33:06.435Z,970.81
2018-03-30T11:34:13.237Z,970.79
2018-03-30T11:35:20.028Z,970.80
2018-03-30T11:36:26.876Z,970.76
2018-03-30T11:37:33.668Z,970.83
2018-03-30T11:38:40.510Z,970.78
2018-03-30T11:39:47.338Z,970.76
2018-03-30T11:40:54.240Z,970.72
2018-03-30T11:42:01.074Z,970.68
2018-03-30T11:43:07.820Z,970.65
2018-03-30T11:44:14.672Z,970.78
2018-03-30T11:45:21.426Z,970.69
2018-03-30T11:46:28.234Z,970.68
2018-03-30T11:47:35.051Z,970.67
2018-03-30T11:48:41.769Z,970.62
2018-03-30T11:49:48.620Z,970.69
2018-03-30T11:50:55.421Z,970.71
2018-03-30T11:52:02.224Z,970.60
2018-03-30T11:53:08.987Z,970.58
2018-03-30T11:54:15.808Z,970.57
2018-03-30T11:55:22.536Z,970.74
2018-03-30T11:56:29.325Z,970.57
2018-03-30T11:57:36.196Z,970.57
2018-03-30T11:58:42.939Z,970.54
2018-03-30T11:59:49.745Z,970.57
2018-03-30T12:00:56.575Z,970.62
2018-03-30T12:02:03.341Z,970.60
2018-03-30T12:03:10.105Z,970.63
2018-03-30T12:04:16.862Z,970.56
2018-03-30T12:05:23.627Z,970.62
2018-03-30T12:06:30.413Z,970.61
2018-03-30T12:07:37.176Z,970.65
2018-03-30T12:08:44.006Z,970.62
2018-03-30T12:09:50.753Z,970.61
2018-03-30T12:10:57.513Z,970.55
2018-03-30T12:12:04.316Z,970.55
2018-03-30T12:13:11.122Z,970.51
2018-03-30T12:14:17.888Z,970.49
2018-03-30T12:15:24.671Z,970.54
2018-03-30T12:16:31.507Z,970.52
2018-03-30T12:17:38.265Z,970.50
2018-03-30T12:18:45.070Z,970.60
2018-03-30T12:19:51.919Z,970.53
2018-03-30T12:20:58.657Z,970.50
2018-03-30T12:22:05.485Z,970.53
2018-03-30T12:23:12.432Z,970.51
2018-03-30T12:24:19.174Z,970.51
2018-03-30T12:25:25.992Z,970.53
2018-03-30T12:26:32.934Z,970.55
2018-03-30T12:27:39.768Z,970.50
2018-03-30T12:28:46.546Z,970.40
2018-03-30T12:29:53.300Z,970.40
2018-03-30T12:31:00.018Z,970.38
2018-03-30T12:32:12.074Z,970.35
2018-03-30T12:33:13.877Z,970.36
2018-03-30T12:34:20.657Z,970.36
2018-03-30T12:35:27.422Z,970.36
2018-03-30T12:36:34.172Z,970.30
2018-03-30T12:37:40.892Z,970.36
2018-03-30T12:38:48.201Z,970.33
2018-03-30T12:39:54.519Z,970.29
2018-03-30T12:41:01.247Z,970.31
2018-03-30T12:42:08.125Z,970.11
2018-03-30T12:43:15.135Z,970.15
2018-03-30T12:44:21.951Z,970.12
2018-03-30T12:45:28.685Z,970.09
2018-03-30T12:46:35.419Z,970.13
2018-03-30T12:47:42.112Z,970.04
2018-03-30T12:48:48.881Z,969.99
2018-03-30T12:49:55.621Z,969.89
2018-03-30T12:51:02.366Z,969.89
2018-03-30T12:52:09.276Z,969.94
2018-03-30T12:53:16.024Z,969.84
2018-03-30T12:54:22.969Z,969.78
2018-03-30T12:55:29.692Z,969.76
2018-03-30T12:56:36.396Z,969.70
2018-03-30T12:57:43.136Z,969.67
2018-03-30T12:58:49.880Z,969.73
2018-03-30T12:59:56.616Z,969.72
2018-03-30T13:01:03.349Z,969.70
2018-03-30T13:02:10.108Z,969.63
2018-03-30T13:03:16.879Z,969.69
2018-03-30T13:04:23.773Z,969.64
2018-03-30T13:05:30.713Z,969.68
2018-03-30T13:06:37.521Z,969.59
2018-03-30T13:07:44.345Z,969.60
2018-03-30T13:08:51.209Z,969.57
2018-03-30T13:09:57.995Z,969.55
2018-03-30T13:11:04.772Z,969.53
2018-03-30T13:12:12.078Z,969.52
2018-03-30T13:13:18.604Z,969.55
2018-03-30T13:14:25.499Z,969.53
2018-03-30T13:15:32.208Z,969.53
2018-03-30T13:16:38.968Z,969.50
2018-03-30T13:17:46.009Z,969.44
2018-03-30T13:18:52.820Z,969.47
2018-03-30T13:19:59.655Z,969.46
2018-03-30T13:21:06.446Z,969.38
2018-03-30T13:22:13.347Z,969.43
2018-03-30T13:23:20.108Z,969.36
2018-03-30T13:24:26.897Z,969.43
2018-03-30T13:25:33.812Z,969.36
2018-03-30T13:26:40.568Z,969.37
2018-03-30T13:27:47.337Z,969.39
2018-03-30T13:28:54.098Z,969.43
2018-03-30T13:30:00.915Z,969.43
2018-03-30T13:31:07.869Z,969.39
2018-03-30T13:32:14.663Z,969.34
2018-03-30T13:33:21.442Z,969.33
2018-03-30T13:34:28.263Z,969.38
2018-03-30T13:35:35.055Z,969.42
2018-03-30T13:36:41.821Z,969.40
2018-03-30T13:37:48.960Z,969.40
2018-03-30T13:38:55.763Z,969.41
2018-03-30T13:40:02.641Z,969.40
2018-03-30T13:41:09.525Z,969.43
2018-03-30T13:42:16.354Z,969.46
2018-03-30T13:43:23.134Z,969.54
2018-03-30T13:44:29.913Z,969.55
2018-03-30T13:45:36.732Z,969.47
2018-03-30T13:46:43.569Z,969.52
2018-03-30T13:47:50.325Z,969.55
2018-03-30T13:48:57.109Z,969.52
2018-03-30T13:50:04.060Z,969.50
2018-03-30T13:51:10.956Z,969.49
2018-03-30T13:52:17.885Z,969.50
2018-03-30T13:53:24.804Z,969.51
2018-03-30T13:54:31.637Z,969.50
2018-03-30T13:55:38.589Z,969.50
2018-03-30T13:56:45.404Z,969.61
2018-03-30T13:57:52.310Z,969.50
2018-03-30T13:58:59.208Z,969.55